Time;durP1;ratioP1;P1;durP2;ratioP2;P2;SDS_P1;SDS_P2;PMS_P1;PMS_P2;Temp;Humidity;BMP_temperature;BMP_pressure;BME280_temperature;BME280_humidity;BME280_pressure;Samples;Min_cycle;Max_cycle;Signal;HPM_P1;HPM_P2
2022/01/03 00:01:29;;;;;;;1.20;1.10;;;;;;;;;;5031740;28;20203;-46
2022/01/03 00:03:56;;;;;;;1.40;1.10;;;;;;;;;;5023160;28;20199;-46
2022/01/03 00:06:22;;;;;;;1.70;1.40;;;;;;;;;;5037097;28;20184;-46
2022/01/03 00:08:48;;;;;;;2.22;1.08;;;;;;;;;;5040220;28;20201;-46
2022/01/03 00:11:16;;;;;;;1.60;1.10;;;;;;;;;;5037118;28;20183;-46
2022/01/03 00:13:43;;;;;;;1.52;1.08;;;;;;;;;;5036560;28;20212;-46
2022/01/03 00:16:10;;;;;;;1.70;1.10;;;;;;;;;;5033120;28;20180;-46
2022/01/03 00:18:36;;;;;;;1.25;1.05;;;;;;;;;;5029542;28;20204;-46
2022/01/03 00:21:02;;;;;;;1.92;1.05;;;;;;;;;;5037745;28;20191;-46
2022/01/03 00:23:30;;;;;;;1.60;1.25;;;;;;;;;;5042139;28;20562;-46
2022/01/03 00:26:01;;;;;;;2.00;1.25;;;;;;;;;;5045701;28;20485;-45
2022/01/03 00:28:47;;;;;;;1.20;1.10;;;;;;;;;;5040037;28;20188;-45
2022/01/03 00:31:14;;;;;;;1.48;0.90;;;;;;;;;;5033831;28;20183;-45
2022/01/03 00:33:40;;;;;;;1.55;1.33;;;;;;;;;;5032564;28;20518;-46
2022/01/03 00:36:06;;;;;;;1.77;1.13;;;;;;;;;;5042158;28;20187;-46
2022/01/03 00:38:34;;;;;;;1.30;1.20;;;;;;;;;;5044894;28;20481;-46
2022/01/03 00:41:00;;;;;;;1.55;1.08;;;;;;;;;;5034639;28;20183;-46
2022/01/03 00:43:27;;;;;;;1.50;1.10;;;;;;;;;;5047473;28;20175;-45
2022/01/03 00:45:56;;;;;;;1.75;1.25;;;;;;;;;;5034037;28;20264;-45
2022/01/03 00:48:23;;;;;;;1.48;1.10;;;;;;;;;;5021569;28;20196;-45
2022/01/03 00:50:49;;;;;;;1.10;1.00;;;;;;;;;;5023717;28;20184;-46
2022/01/03 00:53:15;;;;;;;1.15;0.90;;;;;;;;;;5020628;28;20564;-46
2022/01/03 00:55:56;;;;;;;1.45;1.10;;;;;;;;;;5029722;28;20291;-45
2022/01/03 00:58:24;;;;;;;1.13;1.02;;;;;;;;;;5042515;28;20214;-45
2022/01/03 01:00:51;;;;;;;1.27;1.17;;;;;;;;;;5043383;28;20582;-45
2022/01/03 01:03:22;;;;;;;1.55;1.10;;;;;;;;;;5044298;28;20195;-46
2022/01/03 01:05:49;;;;;;;1.00;0.98;;;;;;;;;;5035340;28;20188;-46
2022/01/03 01:08:18;;;;;;;1.35;1.00;;;;;;;;;;5034495;28;20266;-46
2022/01/03 01:10:45;;;;;;;1.00;0.90;;;;;;;;;;5045548;28;20225;-46
2022/01/03 01:13:11;;;;;;;1.42;1.00;;;;;;;;;;5034079;28;20183;-46
2022/01/03 01:15:38;;;;;;;2.33;1.00;;;;;;;;;;5030570;28;20179;-46
2022/01/03 01:18:05;;;;;;;1.40;1.10;;;;;;;;;;5034430;28;20218;-46
2022/01/03 01:20:31;;;;;;;1.08;1.00;;;;;;;;;;5024403;28;20187;-45
2022/01/03 01:22:57;;;;;;;1.10;1.10;;;;;;;;;;5010449;28;20231;-46
2022/01/03 01:27:45;;;;;;;1.95;1.13;;;;;;;;;;5013706;28;20188;-46
2022/01/03 01:28:11;;;;;;;1.17;1.08;;;;;;;;;;5012164;28;20188;-46
2022/01/03 01:30:38;;;;;;;1.15;1.05;;;;;;;;;;5012200;28;20185;-46
2022/01/03 01:33:14;;;;;;;1.40;1.20;;;;;;;;;;5035672;28;20198;-47
2022/01/03 01:35:43;;;;;;;0.85;0.80;;;;;;;;;;5023220;28;20184;-46
2022/01/03 01:38:10;;;;;;;0.88;0.80;;;;;;;;;;5044362;28;20313;-46
2022/01/03 01:40:42;;;;;;;0.85;0.85;;;;;;;;;;5048436;28;20820;-46
2022/01/03 01:43:11;;;;;;;1.15;0.90;;;;;;;;;;5039267;28;20260;-46
2022/01/03 01:45:37;;;;;;;0.75;0.75;;;;;;;;;;5045497;28;20237;-46
2022/01/03 01:48:04;;;;;;;1.05;0.93;;;;;;;;;;5032066;28;20278;-46
2022/01/03 01:50:30;;;;;;;1.73;0.98;;;;;;;;;;5032520;28;20211;-46
2022/01/03 01:52:56;;;;;;;1.05;0.70;;;;;;;;;;5044566;28;20179;-46
2022/01/03 01:55:23;;;;;;;1.17;1.00;;;;;;;;;;5040578;28;20172;-46
2022/01/03 01:57:55;;;;;;;0.85;0.80;;;;;;;;;;5033514;28;20199;-46
2022/01/03 02:00:21;;;;;;;1.17;1.00;;;;;;;;;;5047396;28;20181;-46
2022/01/03 02:03:02;;;;;;;0.82;0.82;;;;;;;;;;5038489;28;20487;-46
2022/01/03 02:05:36;;;;;;;0.80;0.80;;;;;;;;;;5036250;28;20206;-46
2022/01/03 02:08:13;;;;;;;1.60;0.90;;;;;;;;;;5036336;28;20182;-46
2022/01/03 02:10:42;;;;;;;1.15;1.05;;;;;;;;;;5046127;28;20603;-46
2022/01/03 02:13:08;;;;;;;0.98;0.90;;;;;;;;;;5050255;28;20302;-46
2022/01/03 02:15:36;;;;;;;1.42;0.80;;;;;;;;;;5036680;28;20662;-46
2022/01/03 02:18:02;;;;;;;0.95;0.77;;;;;;;;;;5035769;28;20275;-46
2022/01/03 02:20:30;;;;;;;0.70;0.70;;;;;;;;;;5041919;28;20187;-45
2022/01/03 02:22:57;;;;;;;1.00;0.80;;;;;;;;;;5045082;28;20206;-45
2022/01/03 02:25:24;;;;;;;0.70;0.70;;;;;;;;;;5036302;28;20187;-45
2022/01/03 02:27:50;;;;;;;0.82;0.82;;;;;;;;;;5030130;28;20196;-46
2022/01/03 02:30:18;;;;;;;0.88;0.63;;;;;;;;;;5044828;28;20183;-46
2022/01/03 02:32:44;;;;;;;0.75;0.75;;;;;;;;;;5045733;28;20554;-46
2022/01/03 02:35:10;;;;;;;1.27;0.93;;;;;;;;;;5043220;28;20183;-46
2022/01/03 02:37:38;;;;;;;1.02;0.68;;;;;;;;;;5032125;28;20188;-46
2022/01/03 02:40:33;;;;;;;0.77;0.60;;;;;;;;;;5034821;28;20311;-46
2022/01/03 02:42:59;;;;;;;0.60;0.60;;;;;;;;;;5041862;28;20183;-45
2022/01/03 02:45:26;;;;;;;0.60;0.60;;;;;;;;;;5034151;28;20195;-45
2022/01/03 02:47:53;;;;;;;0.77;0.77;;;;;;;;;;5043147;28;20214;-45
2022/01/03 02:50:20;;;;;;;0.73;0.73;;;;;;;;;;5046588;28;20275;-45
2022/01/03 02:52:47;;;;;;;0.90;0.70;;;;;;;;;;5040654;28;22168;-46
2022/01/03 02:55:13;;;;;;;0.80;0.80;;;;;;;;;;5042534;28;20187;-46
2022/01/03 02:57:41;;;;;;;0.80;0.70;;;;;;;;;;5045262;28;20197;-46
2022/01/03 03:00:09;;;;;;;0.70;0.70;;;;;;;;;;5045193;28;20187;-46
2022/01/03 03:02:35;;;;;;;0.90;0.70;;;;;;;;;;5041010;28;20222;-46
2022/01/03 03:05:04;;;;;;;0.90;0.90;;;;;;;;;;5045006;28;20179;-46
2022/01/03 03:07:30;;;;;;;2.00;0.95;;;;;;;;;;5047638;28;20279;-46
2022/01/03 03:09:57;;;;;;;0.60;0.60;;;;;;;;;;5038953;28;20191;-46
2022/01/03 03:12:23;;;;;;;0.60;0.60;;;;;;;;;;5027417;28;20215;-46
2022/01/03 03:14:50;;;;;;;0.68;0.68;;;;;;;;;;5048971;28;20195;-46
2022/01/03 03:17:18;;;;;;;0.60;0.60;;;;;;;;;;5021622;28;20195;-46
2022/01/03 03:19:58;;;;;;;1.05;0.80;;;;;;;;;;5043074;28;20212;-45
2022/01/03 03:22:25;;;;;;;0.50;0.50;;;;;;;;;;5030165;28;20828;-45
2022/01/03 03:24:51;;;;;;;0.73;0.73;;;;;;;;;;5041937;28;20187;-45
2022/01/03 03:27:18;;;;;;;0.63;0.63;;;;;;;;;;5021115;28;20195;-45
2022/01/03 03:29:49;;;;;;;0.70;0.70;;;;;;;;;;5050702;28;20175;-45
2022/01/03 03:32:15;;;;;;;0.70;0.70;;;;;;;;;;5028713;28;20197;-46
2022/01/03 03:34:42;;;;;;;0.75;0.60;;;;;;;;;;5031784;28;20543;-46
2022/01/03 03:37:09;;;;;;;0.80;0.77;;;;;;;;;;5038578;28;20187;-46
2022/01/03 03:39:36;;;;;;;0.60;0.60;;;;;;;;;;5049010;28;20293;-46
2022/01/03 03:42:03;;;;;;;0.70;0.70;;;;;;;;;;5028259;28;20179;-46
2022/01/03 03:44:29;;;;;;;0.63;0.63;;;;;;;;;;5040245;28;21706;-46
2022/01/03 03:46:55;;;;;;;0.75;0.75;;;;;;;;;;5035654;28;20187;-46
2022/01/03 03:49:21;;;;;;;0.75;0.70;;;;;;;;;;5043175;28;20187;-46
2022/01/03 03:51:47;;;;;;;0.90;0.57;;;;;;;;;;5043616;28;20202;-46
2022/01/03 03:54:12;;;;;;;0.82;0.60;;;;;;;;;;5040487;28;20183;-46
2022/01/03 03:56:39;;;;;;;0.90;0.60;;;;;;;;;;5038973;28;20743;-45
2022/01/03 03:59:04;;;;;;;0.60;0.60;;;;;;;;;;5039902;28;20207;-45
2022/01/03 04:01:30;;;;;;;0.65;0.57;;;;;;;;;;5048216;28;20211;-45
2022/01/03 04:03:57;;;;;;;1.15;0.65;;;;;;;;;;5043955;28;20195;-46
2022/01/03 04:06:22;;;;;;;0.50;0.50;;;;;;;;;;5032338;28;20198;-45
2022/01/03 04:08:48;;;;;;;0.40;0.40;;;;;;;;;;5026323;28;20187;-46
2022/01/03 04:11:15;;;;;;;0.65;0.60;;;;;;;;;;5021679;28;20638;-46
2022/01/03 04:13:41;;;;;;;0.85;0.70;;;;;;;;;;5023141;28;20214;-46
2022/01/03 04:16:07;;;;;;;0.57;0.57;;;;;;;;;;5032496;28;20187;-46
2022/01/03 04:18:33;;;;;;;0.55;0.50;;;;;;;;;;5021187;28;20717;-46
2022/01/03 04:20:59;;;;;;;0.60;0.60;;;;;;;;;;5020128;28;20562;-45
2022/01/03 04:23:26;;;;;;;0.50;0.50;;;;;;;;;;5022675;28;20215;-45
2022/01/03 04:25:52;;;;;;;0.50;0.50;;;;;;;;;;5043836;28;20571;-45
2022/01/03 04:28:18;;;;;;;0.38;0.38;;;;;;;;;;5034222;28;20248;-45
2022/01/03 04:30:44;;;;;;;0.60;0.60;;;;;;;;;;5023824;28;20518;-45
2022/01/03 04:33:10;;;;;;;0.85;0.60;;;;;;;;;;5036386;28;20229;-45
2022/01/03 04:35:37;;;;;;;0.52;0.52;;;;;;;;;;5034813;28;20598;-45
2022/01/03 04:38:03;;;;;;;0.40;0.40;;;;;;;;;;5039349;28;20180;-45
2022/01/03 04:40:29;;;;;;;0.47;0.47;;;;;;;;;;5029358;28;20191;-45
2022/01/03 04:42:55;;;;;;;0.60;0.60;;;;;;;;;;5042383;28;20265;-45
2022/01/03 04:45:21;;;;;;;0.50;0.50;;;;;;;;;;5048927;28;20179;-45
2022/01/03 04:47:47;;;;;;;1.02;0.73;;;;;;;;;;5035157;28;20239;-45
2022/01/03 04:50:13;;;;;;;0.70;0.70;;;;;;;;;;5043719;28;20184;-46
2022/01/03 04:52:39;;;;;;;0.85;0.85;;;;;;;;;;5032509;28;20230;-45
2022/01/03 04:55:05;;;;;;;0.40;0.40;;;;;;;;;;5049718;28;20191;-45
2022/01/03 04:57:31;;;;;;;0.93;0.30;;;;;;;;;;5023485;28;20460;-46
2022/01/03 04:59:57;;;;;;;1.38;0.50;;;;;;;;;;5044062;28;20217;-46
2022/01/03 05:02:23;;;;;;;0.45;0.45;;;;;;;;;;5024832;28;20220;-46
2022/01/03 05:04:49;;;;;;;0.70;0.60;;;;;;;;;;5025228;28;20198;-46
2022/01/03 05:07:15;;;;;;;0.38;0.38;;;;;;;;;;5037102;28;20180;-46
2022/01/03 05:09:41;;;;;;;1.17;0.73;;;;;;;;;;5045087;28;20607;-46
2022/01/03 05:12:07;;;;;;;5.20;1.00;;;;;;;;;;5049602;28;20220;-46
2022/01/03 05:14:33;;;;;;;4.28;1.20;;;;;;;;;;5041597;28;20186;-46
2022/01/03 05:16:59;;;;;;;4.82;1.30;;;;;;;;;;5045170;28;20187;-46
2022/01/03 05:19:26;;;;;;;4.78;1.30;;;;;;;;;;5028130;28;20541;-46
2022/01/03 05:21:52;;;;;;;8.75;1.55;;;;;;;;;;5035257;28;20621;-46
2022/01/03 05:24:19;;;;;;;3.72;1.50;;;;;;;;;;5027322;28;20187;-46
2022/01/03 05:26:45;;;;;;;19.70;1.67;;;;;;;;;;5048187;28;20187;-46
2022/01/03 05:29:11;;;;;;;8.82;1.17;;;;;;;;;;5025686;28;20206;-46
2022/01/03 05:31:37;;;;;;;8.48;1.88;;;;;;;;;;5050227;28;20191;-46
2022/01/03 05:34:03;;;;;;;5.38;1.42;;;;;;;;;;5042180;28;20680;-46
2022/01/03 05:36:29;;;;;;;3.10;1.35;;;;;;;;;;5040792;28;20561;-45
2022/01/03 05:38:55;;;;;;;5.15;1.45;;;;;;;;;;5037491;28;20256;-46
2022/01/03 05:41:21;;;;;;;8.20;1.85;;;;;;;;;;5036665;28;20176;-46
2022/01/03 05:43:49;;;;;;;4.28;1.23;;;;;;;;;;5040021;28;20318;-46
2022/01/03 05:46:15;;;;;;;6.50;1.42;;;;;;;;;;5048730;28;20186;-46
2022/01/03 05:48:41;;;;;;;6.90;1.55;;;;;;;;;;5043950;28;20262;-46
2022/01/03 05:51:07;;;;;;;3.40;1.40;;;;;;;;;;5035797;28;20194;-46
2022/01/03 05:53:33;;;;;;;5.72;1.67;;;;;;;;;;5041650;28;20187;-46
2022/01/03 05:56:00;;;;;;;7.35;1.48;;;;;;;;;;5050282;28;20183;-46
2022/01/03 05:58:26;;;;;;;4.55;1.40;;;;;;;;;;5035799;28;20222;-46
2022/01/03 06:00:52;;;;;;;4.03;1.55;;;;;;;;;;5043904;28;20194;-46
2022/01/03 06:03:21;;;;;;;6.57;1.63;;;;;;;;;;5030235;28;20556;-46
2022/01/03 06:08:20;;;;;;;3.72;1.45;;;;;;;;;;5051327;28;20601;-46
2022/01/03 06:10:46;;;;;;;3.30;1.30;;;;;;;;;;5029595;28;20196;-46
2022/01/03 06:13:12;;;;;;;6.50;1.30;;;;;;;;;;5047625;28;20187;-46
2022/01/03 06:15:39;;;;;;;4.20;1.23;;;;;;;;;;5044465;28;20317;-46
2022/01/03 06:18:05;;;;;;;3.42;1.38;;;;;;;;;;5032755;28;20200;-46
2022/01/03 06:20:31;;;;;;;2.45;1.10;;;;;;;;;;5036418;28;20179;-45
2022/01/03 06:22:57;;;;;;;5.55;1.60;;;;;;;;;;5032776;28;20198;-46
2022/01/03 06:25:23;;;;;;;8.07;1.70;;;;;;;;;;5036532;28;20543;-46
2022/01/03 06:27:49;;;;;;;6.07;1.45;;;;;;;;;;5038673;28;20184;-46
2022/01/03 06:30:15;;;;;;;5.63;1.52;;;;;;;;;;5035408;28;20558;-46
2022/01/03 06:32:41;;;;;;;10.18;1.83;;;;;;;;;;5040770;28;20227;-46
2022/01/03 06:35:07;;;;;;;5.47;1.65;;;;;;;;;;5037741;28;20198;-46
2022/01/03 06:37:33;;;;;;;7.43;1.40;;;;;;;;;;5028037;28;20188;-46
2022/01/03 06:40:00;;;;;;;5.68;1.50;;;;;;;;;;5036778;28;20261;-46
2022/01/03 06:42:26;;;;;;;3.83;1.20;;;;;;;;;;5036710;28;20624;-46
2022/01/03 06:44:52;;;;;;;2.58;1.23;;;;;;;;;;5019580;28;20572;-47
2022/01/03 06:47:18;;;;;;;5.78;1.60;;;;;;;;;;5037699;28;20242;-46
2022/01/03 06:49:44;;;;;;;9.85;2.10;;;;;;;;;;5041698;28;20191;-46
2022/01/03 06:52:10;;;;;;;6.55;2.00;;;;;;;;;;5035571;28;20978;-46
2022/01/03 06:54:37;;;;;;;3.20;1.65;;;;;;;;;;5034148;28;20216;-46
2022/01/03 06:57:03;;;;;;;5.95;1.55;;;;;;;;;;5039648;28;20187;-46
2022/01/03 06:59:29;;;;;;;3.22;1.38;;;;;;;;;;5042840;28;20601;-45
2022/01/03 07:01:55;;;;;;;6.00;1.88;;;;;;;;;;5047163;28;20191;-46
2022/01/03 07:04:21;;;;;;;3.45;1.40;;;;;;;;;;5039158;28;20172;-46
2022/01/03 07:06:47;;;;;;;5.05;1.50;;;;;;;;;;5035534;28;20459;-46
2022/01/03 07:09:12;;;;;;;4.43;1.77;;;;;;;;;;5031467;28;20195;-46
2022/01/03 07:11:39;;;;;;;5.75;1.73;;;;;;;;;;5031478;28;20183;-46
2022/01/03 07:18:56;;;;;;;6.95;1.70;;;;;;;;;;5036654;28;20183;-46
2022/01/03 07:19:36;;;;;;;4.38;1.42;;;;;;;;;;5035899;28;20361;-46
2022/01/03 07:22:05;;;;;;;6.05;1.50;;;;;;;;;;5035089;28;20540;-46
2022/01/03 07:24:34;;;;;;;7.13;1.67;;;;;;;;;;5045910;28;20417;-46
2022/01/03 07:27:08;;;;;;;3.33;1.42;;;;;;;;;;5035924;28;20183;-45
2022/01/03 07:29:34;;;;;;;6.75;1.83;;;;;;;;;;5040657;28;20574;-46
2022/01/03 07:32:00;;;;;;;2.95;1.20;;;;;;;;;;5037435;28;20214;-46
2022/01/03 07:34:27;;;;;;;3.28;1.75;;;;;;;;;;5031864;28;20188;-46
2022/01/03 07:36:53;;;;;;;5.25;1.77;;;;;;;;;;5042494;28;20179;-46
2022/01/03 07:39:19;;;;;;;6.30;1.90;;;;;;;;;;5041904;28;20677;-46
2022/01/03 07:41:45;;;;;;;5.53;1.80;;;;;;;;;;5020819;28;20186;-46
2022/01/03 07:44:11;;;;;;;2.92;1.35;;;;;;;;;;5045862;28;20171;-46
2022/01/03 07:46:37;;;;;;;4.78;1.90;;;;;;;;;;5037259;28;20235;-46
2022/01/03 07:49:03;;;;;;;4.20;1.90;;;;;;;;;;5036959;28;20276;-46
2022/01/03 07:51:29;;;;;;;6.20;1.48;;;;;;;;;;5035533;28;20202;-46
2022/01/03 07:53:55;;;;;;;2.85;1.17;;;;;;;;;;5038339;28;20538;-46
2022/01/03 07:56:21;;;;;;;2.67;1.38;;;;;;;;;;5043682;28;20285;-46
2022/01/03 07:58:48;;;;;;;3.95;1.70;;;;;;;;;;5037839;28;20211;-46
2022/01/03 08:01:14;;;;;;;4.15;1.52;;;;;;;;;;5032444;28;20199;-46
2022/01/03 08:03:40;;;;;;;6.13;1.77;;;;;;;;;;5031697;28;20196;-46
2022/01/03 08:06:08;;;;;;;2.80;1.27;;;;;;;;;;5036518;28;20195;-46
2022/01/03 08:08:34;;;;;;;2.17;1.23;;;;;;;;;;5036862;28;20187;-46
2022/01/03 08:11:00;;;;;;;2.63;1.40;;;;;;;;;;5033249;28;20186;-46
2022/01/03 08:13:26;;;;;;;4.35;1.60;;;;;;;;;;5044919;28;20214;-51
2022/01/03 08:15:52;;;;;;;3.55;1.10;;;;;;;;;;5029784;28;20266;-46
2022/01/03 08:18:18;;;;;;;2.33;1.13;;;;;;;;;;5037325;28;20293;-46
2022/01/03 08:20:44;;;;;;;3.03;1.00;;;;;;;;;;5034781;28;20183;-46
2022/01/03 08:23:10;;;;;;;2.53;1.20;;;;;;;;;;5032581;28;20194;-46
2022/01/03 08:25:37;;;;;;;1.67;1.20;;;;;;;;;;5043945;28;20183;-46
2022/01/03 08:28:07;;;;;;;3.05;1.40;;;;;;;;;;5029422;28;20181;-46
2022/01/03 08:30:34;;;;;;;2.22;1.27;;;;;;;;;;5037955;28;20183;-46
2022/01/03 08:33:00;;;;;;;2.28;1.10;;;;;;;;;;5030315;28;20270;-46
2022/01/03 08:35:27;;;;;;;3.00;1.20;;;;;;;;;;5047677;28;20461;-46
2022/01/03 08:37:53;;;;;;;3.28;1.50;;;;;;;;;;5048006;28;20284;-46
2022/01/03 08:40:19;;;;;;;2.95;1.20;;;;;;;;;;5049192;28;20256;-46
2022/01/03 08:42:45;;;;;;;2.03;1.00;;;;;;;;;;5045553;28;20267;-46
2022/01/03 08:45:12;;;;;;;2.35;1.13;;;;;;;;;;5045774;28;20171;-46
2022/01/03 08:47:38;;;;;;;2.50;1.20;;;;;;;;;;5033942;28;20176;-46
2022/01/03 08:50:04;;;;;;;2.47;1.13;;;;;;;;;;5041459;28;20200;-46
2022/01/03 08:52:31;;;;;;;1.35;0.93;;;;;;;;;;5031792;28;20219;-46
2022/01/03 08:54:57;;;;;;;1.55;1.10;;;;;;;;;;5047006;28;20186;-46
2022/01/03 08:57:23;;;;;;;2.53;1.00;;;;;;;;;;5043453;28;20213;-46
2022/01/03 08:59:49;;;;;;;2.58;1.20;;;;;;;;;;5046613;28;20203;-46
2022/01/03 09:02:16;;;;;;;1.65;0.90;;;;;;;;;;5037791;28;20454;-46
2022/01/03 09:04:45;;;;;;;3.15;1.23;;;;;;;;;;5029291;28;20191;-46
2022/01/03 09:07:11;;;;;;;2.35;1.00;;;;;;;;;;5045760;28;20175;-46
2022/01/03 09:09:37;;;;;;;1.58;1.00;;;;;;;;;;5047436;28;20190;-46
2022/01/03 09:12:06;;;;;;;2.80;1.00;;;;;;;;;;5038557;28;20702;-46
2022/01/03 09:14:32;;;;;;;1.40;0.90;;;;;;;;;;5037066;28;20213;-46
2022/01/03 09:16:58;;;;;;;2.08;0.77;;;;;;;;;;5039941;28;20191;-46
2022/01/03 09:19:24;;;;;;;2.08;0.88;;;;;;;;;;5034831;28;20657;-46
2022/01/03 09:21:57;;;;;;;2.13;0.93;;;;;;;;;;5043594;28;20167;-46
2022/01/03 09:24:30;;;;;;;1.40;0.90;;;;;;;;;;5038130;28;20179;-46
2022/01/03 09:29:48;;;;;;;2.00;0.90;;;;;;;;;;5009907;28;20299;-46
2022/01/03 09:32:14;;;;;;;1.98;0.95;;;;;;;;;;5045432;28;20449;-46
2022/01/03 09:34:40;;;;;;;1.15;0.90;;;;;;;;;;5041751;28;20180;-46
2022/01/03 09:37:06;;;;;;;1.48;0.90;;;;;;;;;;5039834;28;20235;-46
2022/01/03 09:39:32;;;;;;;1.30;0.80;;;;;;;;;;5044869;28;20207;-46
2022/01/03 09:42:02;;;;;;;2.13;0.77;;;;;;;;;;5032357;28;20264;-46
2022/01/03 09:44:30;;;;;;;2.25;1.10;;;;;;;;;;5044328;28;20360;-46
2022/01/03 09:46:59;;;;;;;2.03;0.90;;;;;;;;;;5042122;28;20194;-46
2022/01/03 09:49:26;;;;;;;1.08;0.80;;;;;;;;;;5043945;28;20209;-46
2022/01/03 09:51:52;;;;;;;0.90;0.70;;;;;;;;;;5038872;28;20185;-46
2022/01/03 09:54:20;;;;;;;1.58;0.80;;;;;;;;;;5028533;28;20263;-46
2022/01/03 09:56:46;;;;;;;1.80;0.77;;;;;;;;;;5040929;28;20191;-46
2022/01/03 09:59:13;;;;;;;1.40;0.80;;;;;;;;;;5043768;28;20225;-46
2022/01/03 10:01:40;;;;;;;2.83;0.93;;;;;;;;;;5040100;28;20606;-46
2022/01/03 10:04:06;;;;;;;1.27;0.77;;;;;;;;;;5037878;28;20183;-46
2022/01/03 10:06:32;;;;;;;1.55;0.60;;;;;;;;;;5045193;28;20192;-46
2022/01/03 10:08:59;;;;;;;1.00;0.68;;;;;;;;;;5050566;28;20214;-46
2022/01/03 10:11:26;;;;;;;2.53;0.95;;;;;;;;;;5035167;28;20214;-46
2022/01/03 10:13:52;;;;;;;0.95;0.77;;;;;;;;;;5033095;28;20583;-47
2022/01/03 10:16:18;;;;;;;1.20;0.95;;;;;;;;;;5033243;28;20194;-46
2022/01/03 10:18:48;;;;;;;0.80;0.70;;;;;;;;;;5040787;28;20214;-46
2022/01/03 10:21:32;;;;;;;1.70;0.63;;;;;;;;;;5033810;28;20206;-46
2022/01/03 10:23:59;;;;;;;2.03;0.82;;;;;;;;;;5037521;28;20190;-46
2022/01/03 10:26:25;;;;;;;0.80;0.60;;;;;;;;;;5031594;28;20199;-46
2022/01/03 10:28:51;;;;;;;1.55;0.68;;;;;;;;;;5031123;28;20192;-46
2022/01/03 10:31:19;;;;;;;3.33;0.98;;;;;;;;;;5031546;28;20569;-46
2022/01/03 10:33:45;;;;;;;0.98;0.60;;;;;;;;;;5043196;28;20211;-46
2022/01/03 10:36:31;;;;;;;1.27;0.77;;;;;;;;;;5037034;28;20195;-46
2022/01/03 10:38:58;;;;;;;1.05;0.65;;;;;;;;;;5034826;28;20257;-46
2022/01/03 10:41:25;;;;;;;1.40;0.90;;;;;;;;;;5036760;28;20176;-46
2022/01/03 10:43:58;;;;;;;1.70;0.70;;;;;;;;;;5034056;28;20765;-46
2022/01/03 10:46:24;;;;;;;1.27;0.82;;;;;;;;;;5037701;28;20175;-46
2022/01/03 10:48:50;;;;;;;1.67;0.80;;;;;;;;;;5036048;28;20188;-46
2022/01/03 10:51:28;;;;;;;1.65;0.88;;;;;;;;;;5029820;28;20196;-46
2022/01/03 10:53:57;;;;;;;1.40;0.90;;;;;;;;;;5030522;28;20195;-46
2022/01/03 10:56:29;;;;;;;0.82;0.68;;;;;;;;;;5042193;28;20241;-46
2022/01/03 10:59:04;;;;;;;1.27;0.85;;;;;;;;;;5031007;28;20221;-46
2022/01/03 11:01:34;;;;;;;1.15;0.77;;;;;;;;;;5032527;28;20580;-46
2022/01/03 11:04:02;;;;;;;0.63;0.60;;;;;;;;;;5037698;28;20195;-46
2022/01/03 11:11:49;;;;;;;0.88;0.60;;;;;;;;;;5042294;28;20202;-46
2022/01/03 11:14:30;;;;;;;1.33;0.60;;;;;;;;;;5034476;28;20509;-46
2022/01/03 11:16:57;;;;;;;0.85;0.60;;;;;;;;;;5026109;28;20187;-47
2022/01/03 11:19:39;;;;;;;1.50;0.70;;;;;;;;;;5033700;28;20200;-46
2022/01/03 11:22:05;;;;;;;1.58;0.70;;;;;;;;;;5046057;28;20270;-46
2022/01/03 11:24:32;;;;;;;0.93;0.70;;;;;;;;;;5037982;28;20191;-46
2022/01/03 11:26:58;;;;;;;1.02;0.50;;;;;;;;;;5032886;28;20194;-46
2022/01/03 11:29:28;;;;;;;1.75;0.68;;;;;;;;;;5043459;28;20191;-46
2022/01/03 11:31:54;;;;;;;1.67;0.82;;;;;;;;;;5044421;28;20187;-46
2022/01/03 11:34:24;;;;;;;1.10;0.80;;;;;;;;;;5020605;28;20259;-47
2022/01/03 11:36:50;;;;;;;0.90;0.60;;;;;;;;;;5044047;28;20188;-47
2022/01/03 11:39:19;;;;;;;0.75;0.60;;;;;;;;;;5037377;28;20207;-47
2022/01/03 11:41:45;;;;;;;0.65;0.55;;;;;;;;;;5043091;28;20210;-47
2022/01/03 11:44:12;;;;;;;1.23;0.50;;;;;;;;;;5023429;28;20175;-47
2022/01/03 11:46:38;;;;;;;0.73;0.55;;;;;;;;;;5042791;28;20182;-47
2022/01/03 11:49:05;;;;;;;1.55;0.68;;;;;;;;;;5031618;28;20179;-46
2022/01/03 11:51:32;;;;;;;1.20;0.70;;;;;;;;;;5039969;28;20191;-46
2022/01/03 11:53:59;;;;;;;2.38;0.75;;;;;;;;;;5037489;28;20194;-46
2022/01/03 11:56:26;;;;;;;0.75;0.63;;;;;;;;;;5041015;28;20251;-46
2022/01/03 11:59:22;;;;;;;1.10;0.70;;;;;;;;;;5044903;28;20285;-46
2022/01/03 12:04:34;;;;;;;0.47;0.47;;;;;;;;;;5026445;28;20242;-46
2022/01/03 12:07:04;;;;;;;1.02;0.55;;;;;;;;;;5044103;28;20515;-46
2022/01/03 12:09:31;;;;;;;0.70;0.50;;;;;;;;;;5022339;28;20180;-46
2022/01/03 12:11:57;;;;;;;1.85;0.50;;;;;;;;;;5036896;28;20252;-46
2022/01/03 12:14:23;;;;;;;0.57;0.50;;;;;;;;;;5039109;28;20180;-46
2022/01/03 12:16:49;;;;;;;1.00;0.68;;;;;;;;;;5041962;28;20207;-46
2022/01/03 12:19:36;;;;;;;1.33;0.60;;;;;;;;;;5049523;28;20691;-47
2022/01/03 12:22:12;;;;;;;0.50;0.50;;;;;;;;;;5032907;28;20179;-47
2022/01/03 12:24:39;;;;;;;1.95;0.70;;;;;;;;;;5038924;28;20440;-47
2022/01/03 12:27:14;;;;;;;0.73;0.45;;;;;;;;;;5040498;28;20202;-47
2022/01/03 12:29:56;;;;;;;1.15;0.63;;;;;;;;;;5022114;28;20187;-47
2022/01/03 12:32:38;;;;;;;0.50;0.50;;;;;;;;;;5041644;28;20611;-47
2022/01/03 12:35:16;;;;;;;0.95;0.50;;;;;;;;;;5030789;28;20193;-46
2022/01/03 12:37:42;;;;;;;0.57;0.57;;;;;;;;;;5032727;28;20513;-46
2022/01/03 12:40:08;;;;;;;0.75;0.50;;;;;;;;;;5036040;28;20614;-46
2022/01/03 12:42:52;;;;;;;1.10;0.73;;;;;;;;;;5039886;28;20229;-46
2022/01/03 12:45:33;;;;;;;1.15;0.50;;;;;;;;;;5036347;28;20431;-46
2022/01/03 12:48:11;;;;;;;0.43;0.43;;;;;;;;;;5039777;28;20186;-46
2022/01/03 12:50:53;;;;;;;0.63;0.55;;;;;;;;;;5042150;28;20176;-46
2022/01/03 12:53:18;;;;;;;0.55;0.50;;;;;;;;;;5048635;28;20179;-46
2022/01/03 12:55:44;;;;;;;0.60;0.60;;;;;;;;;;5033454;28;20263;-46
2022/01/03 12:58:17;;;;;;;0.63;0.55;;;;;;;;;;5032408;28;20226;-47
2022/01/03 13:00:44;;;;;;;1.83;0.70;;;;;;;;;;5042570;28;20801;-47
2022/01/03 13:03:28;;;;;;;1.10;0.50;;;;;;;;;;5038163;28;20192;-47
2022/01/03 13:06:07;;;;;;;0.80;0.45;;;;;;;;;;5043829;28;20179;-47
2022/01/03 13:08:33;;;;;;;1.08;0.40;;;;;;;;;;5032133;28;20208;-47
2022/01/03 13:11:04;;;;;;;0.88;0.57;;;;;;;;;;5035991;28;20231;-47
2022/01/03 13:13:30;;;;;;;1.65;0.70;;;;;;;;;;5029053;28;20203;-47
2022/01/03 13:15:56;;;;;;;1.33;0.50;;;;;;;;;;5036805;28;20179;-46
2022/01/03 13:18:22;;;;;;;1.45;0.60;;;;;;;;;;5034900;28;20180;-46
2022/01/03 13:20:58;;;;;;;0.70;0.50;;;;;;;;;;5040413;28;20194;-46
2022/01/03 13:23:24;;;;;;;0.55;0.38;;;;;;;;;;5035987;28;20604;-46
2022/01/03 13:25:51;;;;;;;0.50;0.50;;;;;;;;;;5032111;28;20578;-47
2022/01/03 13:28:17;;;;;;;0.90;0.68;;;;;;;;;;5040240;28;20180;-47
2022/01/03 13:31:01;;;;;;;0.73;0.40;;;;;;;;;;5043255;28;20286;-47
2022/01/03 13:33:27;;;;;;;0.90;0.68;;;;;;;;;;5026785;28;20204;-47
2022/01/03 13:36:03;;;;;;;1.30;0.60;;;;;;;;;;5034405;28;20593;-47
2022/01/03 13:38:30;;;;;;;1.33;0.65;;;;;;;;;;5047843;28;20191;-47
2022/01/03 13:41:14;;;;;;;1.45;0.60;;;;;;;;;;5021125;28;20230;-47
2022/01/03 13:43:44;;;;;;;0.80;0.50;;;;;;;;;;5041378;28;20562;-46
2022/01/03 13:51:21;;;;;;;1.52;0.73;;;;;;;;;;5032128;28;20779;-46
2022/01/03 13:53:51;;;;;;;0.82;0.60;;;;;;;;;;5038787;28;20614;-46
2022/01/03 13:56:17;;;;;;;1.35;0.77;;;;;;;;;;5044751;28;20187;-47
2022/01/03 13:58:46;;;;;;;3.00;0.80;;;;;;;;;;5038078;28;20218;-46
2022/01/03 14:01:12;;;;;;;1.63;0.70;;;;;;;;;;5022839;28;20194;-46
2022/01/03 14:03:41;;;;;;;1.65;0.70;;;;;;;;;;5042492;28;20230;-46
2022/01/03 14:06:17;;;;;;;1.42;0.90;;;;;;;;;;5023555;28;20439;-46
2022/01/03 14:08:45;;;;;;;0.85;0.57;;;;;;;;;;5044512;28;20190;-47
2022/01/03 14:11:14;;;;;;;2.35;0.85;;;;;;;;;;5032776;28;20236;-47
2022/01/03 14:13:40;;;;;;;0.85;0.70;;;;;;;;;;5043862;28;20207;-47
2022/01/03 14:16:07;;;;;;;0.70;0.70;;;;;;;;;;5038315;28;20198;-47
2022/01/03 14:18:35;;;;;;;0.90;0.50;;;;;;;;;;5048520;28;20211;-47
2022/01/03 14:21:07;;;;;;;1.15;0.77;;;;;;;;;;5025875;28;20201;-47
2022/01/03 14:23:40;;;;;;;1.13;0.80;;;;;;;;;;5044712;28;20857;-47
2022/01/03 14:26:12;;;;;;;0.93;0.65;;;;;;;;;;5037954;28;20614;-47
2022/01/03 14:28:39;;;;;;;1.88;0.80;;;;;;;;;;5045555;28;20203;-47
2022/01/03 14:31:06;;;;;;;2.25;0.70;;;;;;;;;;5033563;28;20197;-47
2022/01/03 14:33:34;;;;;;;2.50;0.63;;;;;;;;;;5047192;28;20186;-47
2022/01/03 14:36:09;;;;;;;1.52;1.00;;;;;;;;;;5029365;28;20330;-46
2022/01/03 14:38:38;;;;;;;1.05;0.60;;;;;;;;;;5026120;28;20207;-46
2022/01/03 14:41:04;;;;;;;1.45;0.90;;;;;;;;;;5030690;28;20185;-46
2022/01/03 14:43:30;;;;;;;1.13;0.70;;;;;;;;;;5031917;28;20733;-47
2022/01/03 14:46:07;;;;;;;0.98;0.60;;;;;;;;;;5040017;28;20241;-47
2022/01/03 14:48:33;;;;;;;3.80;0.90;;;;;;;;;;5041888;28;20715;-46
2022/01/03 14:51:09;;;;;;;1.65;0.98;;;;;;;;;;5040360;28;20191;-46
2022/01/03 14:53:35;;;;;;;4.53;1.02;;;;;;;;;;5038398;28;20626;-46
2022/01/03 14:56:01;;;;;;;3.00;0.68;;;;;;;;;;5038194;28;20285;-47
2022/01/03 14:58:27;;;;;;;3.95;0.85;;;;;;;;;;5032780;28;20268;-46
2022/01/03 15:00:53;;;;;;;1.30;0.70;;;;;;;;;;5019516;28;20524;-46
2022/01/03 15:03:22;;;;;;;3.95;0.85;;;;;;;;;;5045093;28;20280;-46
2022/01/03 15:05:49;;;;;;;3.65;0.95;;;;;;;;;;5043071;28;20186;-46
2022/01/03 15:08:15;;;;;;;7.43;0.93;;;;;;;;;;5040897;28;20637;-46
2022/01/03 15:10:42;;;;;;;1.05;0.60;;;;;;;;;;5035209;28;20226;-46